createdAt,value
2022-11-04T00:00:14.517Z,5.73
2022-11-04T00:02:18.317Z,5.70
2022-11-04T00:04:23.239Z,3.47
2022-11-04T00:06:26.762Z,3.20
2022-11-04T00:08:29.064Z,3.63
2022-11-04T00:10:46.298Z,3.17
2022-11-04T00:12:53.993Z,2.90
2022-11-04T00:15:17.417Z,2.97
2022-11-04T00:17:20.215Z,2.90
2022-11-04T00:19:24.309Z,3.03
2022-11-04T00:21:45.486Z,5.90
2022-11-04T00:24:02.958Z,3.30
2022-11-04T00:26:23.966Z,4.27
2022-11-04T00:28:47.064Z,3.87
2022-11-04T00:30:54.377Z,4.10
2022-11-04T00:33:29.874Z,3.90
2022-11-04T00:35:33.193Z,3.37
2022-11-04T00:37:38.093Z,3.60
2022-11-04T00:39:41.409Z,4.17
2022-11-04T00:41:44.784Z,3.50
2022-11-04T00:43:49.453Z,3.50
2022-11-04T00:45:52.731Z,5.50
2022-11-04T00:47:56.145Z,4.27
2022-11-04T00:49:59.874Z,3.70
2022-11-04T00:52:03.210Z,4.00
2022-11-04T00:54:07.118Z,2.90
2022-11-04T00:56:10.418Z,6.70
2022-11-04T00:58:13.730Z,5.90
2022-11-04T01:00:20.035Z,4.00
2022-11-04T01:02:23.482Z,2.83
2022-11-04T01:04:27.126Z,5.13
2022-11-04T01:06:30.493Z,5.57
2022-11-04T01:08:34.542Z,5.13
2022-11-04T01:10:44.526Z,3.70
2022-11-04T01:12:47.875Z,3.50
2022-11-04T01:14:51.212Z,3.10
2022-11-04T01:16:56.004Z,5.20
2022-11-04T01:18:59.384Z,6.60
2022-11-04T01:21:03.433Z,5.47
2022-11-04T01:23:06.830Z,4.20
2022-11-04T01:25:11.124Z,3.77
2022-11-04T01:27:14.416Z,3.87
2022-11-04T01:29:17.725Z,3.47
2022-11-04T01:31:23.429Z,4.87
2022-11-04T01:33:28.118Z,3.63
2022-11-04T01:35:32.173Z,4.83
2022-11-04T01:37:36.293Z,4.17
2022-11-04T01:39:39.682Z,4.20
2022-11-04T01:41:43.067Z,3.10
2022-11-04T01:43:50.969Z,6.03
2022-11-04T01:45:58.233Z,3.20
2022-11-04T01:48:06.585Z,4.20
2022-11-04T01:50:15.689Z,3.40
2022-11-04T01:52:25.291Z,4.17
2022-11-04T01:54:29.908Z,5.03
2022-11-04T01:56:34.980Z,5.57
2022-11-04T01:58:41.183Z,3.50
2022-11-04T02:00:45.617Z,2.00
2022-11-04T02:02:55.819Z,1.67
2022-11-04T02:04:59.202Z,6.00
2022-11-04T02:07:07.061Z,5.60
2022-11-04T02:11:32.778Z,3.37
2022-11-04T02:13:37.793Z,4.17
2022-11-04T02:15:46.729Z,4.13
2022-11-04T02:18:08.094Z,2.23
2022-11-04T02:20:33.768Z,2.67
2022-11-04T02:23:19.543Z,6.00
2022-11-04T02:25:54.659Z,4.57
2022-11-04T02:28:18.865Z,5.20
2022-11-04T02:30:24.017Z,2.90
2022-11-04T02:32:40.817Z,3.47
2022-11-04T02:34:53.718Z,3.97
2022-11-04T02:37:07.963Z,3.33
2022-11-04T02:39:24.136Z,5.23
2022-11-04T02:41:39.281Z,3.73
2022-11-04T02:43:56.224Z,3.07
2022-11-04T02:46:06.197Z,3.30
2022-11-04T02:48:18.184Z,3.53
2022-11-04T02:50:26.630Z,2.43
2022-11-04T02:52:37.621Z,4.53
2022-11-04T02:54:47.592Z,2.50
2022-11-04T02:56:53.462Z,4.40
2022-11-04T02:59:02.006Z,2.90
2022-11-04T03:01:08.793Z,4.33
2022-11-04T03:03:16.009Z,2.73
2022-11-04T03:05:23.590Z,4.63
2022-11-04T03:07:32.382Z,5.20
2022-11-04T03:09:39.452Z,5.50
2022-11-04T03:11:46.714Z,4.80
2022-11-04T03:13:54.729Z,4.57
2022-11-04T03:16:02.842Z,4.33
2022-11-04T03:18:16.882Z,3.77
2022-11-04T03:20:24.467Z,5.90
2022-11-04T03:22:30.576Z,3.90
2022-11-04T03:24:34.060Z,3.77
2022-11-04T03:26:42.510Z,3.40
2022-11-04T03:28:52.100Z,5.20
2022-11-04T03:31:00.983Z,3.80
2022-11-04T03:33:13.187Z,4.37
2022-11-04T03:35:18.271Z,5.40
2022-11-04T03:37:21.632Z,3.77
2022-11-04T03:39:25.516Z,3.70
2022-11-04T03:41:35.335Z,3.17
2022-11-04T03:43:40.803Z,3.10
2022-11-04T03:45:44.909Z,3.33
2022-11-04T03:47:48.645Z,2.57
2022-11-04T03:49:57.003Z,3.27
2022-11-04T03:52:00.485Z,7.23
2022-11-04T03:54:04.163Z,3.43
2022-11-04T03:56:28.520Z,2.80
2022-11-04T03:58:44.262Z,3.80
2022-11-04T04:00:52.927Z,3.73
2022-11-04T04:03:08.035Z,6.33
2022-11-04T04:05:20.714Z,3.83
2022-11-04T04:07:31.267Z,3.90
2022-11-04T04:09:40.798Z,5.53
2022-11-04T04:11:47.709Z,3.60
2022-11-04T04:13:56.789Z,3.63
2022-11-04T04:16:03.954Z,5.23
2022-11-04T04:18:12.441Z,4.87
2022-11-04T04:20:20.670Z,4.40
2022-11-04T04:22:28.232Z,3.20
2022-11-04T04:24:53.836Z,3.60
2022-11-04T04:27:16.829Z,4.70
2022-11-04T04:29:21.220Z,6.03
2022-11-04T04:31:45.755Z,4.93
2022-11-04T04:33:49.161Z,3.27
2022-11-04T04:35:57.521Z,5.60
2022-11-04T04:38:19.158Z,3.40
2022-11-04T04:40:47.158Z,3.97
2022-11-04T04:43:11.246Z,2.93
2022-11-04T04:45:22.910Z,5.53
2022-11-04T04:47:30.240Z,3.30
2022-11-04T04:49:35.962Z,2.83
2022-11-04T04:51:44.241Z,3.70
2022-11-04T04:53:47.590Z,2.37
2022-11-04T04:55:50.962Z,5.30
2022-11-04T04:57:54.322Z,3.27
2022-11-04T04:59:57.932Z,3.50
2022-11-04T05:02:01.674Z,4.63
2022-11-04T05:04:05.284Z,3.23
2022-11-04T05:06:09.723Z,3.80
2022-11-04T05:08:14.459Z,3.93
2022-11-04T05:10:19.162Z,4.07
2022-11-04T05:12:22.626Z,4.83
2022-11-04T05:14:25.025Z,5.40
2022-11-04T05:16:28.745Z,5.50
2022-11-04T05:18:32.125Z,5.37
2022-11-04T05:20:38.413Z,3.70
2022-11-04T05:22:41.754Z,1.67
2022-11-04T05:24:46.423Z,2.30
2022-11-04T05:26:49.770Z,3.37
2022-11-04T05:28:53.128Z,3.37
2022-11-04T05:30:56.822Z,4.80
2022-11-04T05:33:03.657Z,5.13
2022-11-04T05:35:09.007Z,3.80
2022-11-04T05:37:12.369Z,4.30
2022-11-04T05:39:15.750Z,5.90
2022-11-04T05:41:25.867Z,5.83
2022-11-04T05:43:29.363Z,4.40
2022-11-04T05:45:32.818Z,3.40
2022-11-04T05:47:36.343Z,4.70
2022-11-04T05:49:39.740Z,3.70
2022-11-04T05:51:43.370Z,3.27
2022-11-04T05:53:46.755Z,4.17
2022-11-04T05:55:50.099Z,3.80
2022-11-04T05:57:55.068Z,3.60
2022-11-04T05:59:58.395Z,3.17
2022-11-04T06:02:01.912Z,5.33
2022-11-04T06:04:07.017Z,12.63
2022-11-04T06:06:10.353Z,6.07
2022-11-04T06:08:13.758Z,2.70
2022-11-04T06:10:17.271Z,3.73
2022-11-04T06:12:20.815Z,3.67
2022-11-04T06:14:25.511Z,5.83
2022-11-04T06:16:28.968Z,2.93
2022-11-04T06:18:32.267Z,4.73
2022-11-04T06:20:35.661Z,3.70
2022-11-04T06:22:39.059Z,3.40
2022-11-04T06:24:42.725Z,3.20
2022-11-04T06:26:46.085Z,4.23
2022-11-04T06:28:49.433Z,4.03
2022-11-04T06:30:54.196Z,3.23
2022-11-04T06:32:57.582Z,3.77
2022-11-04T06:35:01.698Z,6.40
2022-11-04T06:37:05.279Z,4.77
2022-11-04T06:39:08.756Z,3.83
2022-11-04T06:41:14.518Z,3.70
2022-11-04T06:43:17.894Z,5.03
2022-11-04T06:45:21.628Z,6.90
2022-11-04T06:47:26.488Z,3.57
2022-11-04T06:49:29.815Z,3.73
2022-11-04T06:51:34.853Z,3.13
2022-11-04T06:53:38.207Z,3.47
2022-11-04T06:55:41.866Z,3.47
2022-11-04T06:57:45.285Z,3.10
2022-11-04T06:59:48.640Z,3.13
2022-11-04T07:01:52.638Z,5.07
2022-11-04T07:03:58.829Z,4.07
2022-11-04T07:06:07.180Z,3.93
2022-11-04T07:08:10.938Z,3.93
2022-11-04T07:10:14.639Z,3.33
2022-11-04T07:12:17.995Z,3.43
2022-11-04T07:14:21.331Z,3.93
2022-11-04T07:16:24.761Z,3.73
2022-11-04T07:18:28.359Z,6.27
2022-11-04T07:20:33.556Z,5.90
2022-11-04T07:22:37.087Z,3.90
2022-11-04T07:24:40.388Z,3.93
2022-11-04T07:26:43.825Z,3.77
2022-11-04T07:28:47.221Z,3.90
2022-11-04T07:30:50.640Z,3.60
2022-11-04T07:32:54.332Z,3.90
2022-11-04T07:34:57.738Z,4.03
2022-11-04T07:37:02.394Z,3.63
2022-11-04T07:39:07.040Z,4.90
2022-11-04T07:41:11.102Z,3.87
2022-11-04T07:43:14.772Z,3.20
2022-11-04T07:45:18.289Z,3.37
2022-11-04T07:47:22.085Z,3.80
2022-11-04T07:49:26.341Z,3.93
2022-11-04T07:51:32.194Z,3.17
2022-11-04T07:53:36.873Z,4.30
2022-11-04T07:55:43.408Z,3.60
2022-11-04T07:57:47.585Z,3.30
2022-11-04T07:59:50.892Z,2.57
2022-11-04T08:01:54.349Z,4.33
2022-11-04T08:03:57.808Z,2.90
2022-11-04T08:06:03.364Z,4.23
2022-11-04T08:08:06.710Z,3.27
2022-11-04T08:10:11.720Z,2.93
2022-11-04T08:12:15.146Z,3.63
2022-11-04T08:14:18.495Z,4.13
2022-11-04T08:16:23.403Z,8.07
2022-11-04T08:18:26.797Z,8.50
2022-11-04T08:20:30.176Z,13.17
2022-11-04T08:22:35.365Z,3.37
2022-11-04T08:24:38.698Z,5.13
2022-11-04T08:26:43.493Z,5.23
2022-11-04T08:28:47.661Z,4.70
2022-11-04T08:30:55.147Z,4.43
2022-11-04T08:32:59.544Z,4.87
2022-11-04T08:35:03.692Z,3.97
2022-11-04T08:37:07.021Z,4.20
2022-11-04T08:39:11.520Z,6.00
2022-11-04T08:41:17.653Z,5.30
2022-11-04T08:43:22.389Z,5.23
2022-11-04T08:45:29.992Z,3.90
2022-11-04T08:47:37.296Z,3.40
2022-11-04T08:49:41.948Z,3.87
2022-11-04T08:51:47.063Z,4.23
2022-11-04T08:53:50.724Z,5.20
2022-11-04T08:55:54.801Z,5.23
2022-11-04T08:57:58.452Z,7.20
2022-11-04T09:00:03.821Z,5.87
2022-11-04T09:02:08.028Z,6.07
2022-11-04T09:04:12.833Z,5.30
2022-11-04T09:06:19.508Z,7.00
2022-11-04T09:08:22.862Z,7.37
2022-11-04T09:10:26.351Z,8.03
2022-11-04T09:12:29.766Z,6.20
2022-11-04T09:14:33.070Z,4.80
2022-11-04T09:16:38.833Z,7.60
2022-11-04T09:18:42.877Z,6.93
2022-11-04T09:20:46.246Z,4.73
2022-11-04T09:22:50.954Z,4.17
2022-11-04T09:24:54.374Z,4.93
2022-11-04T09:26:57.676Z,2.90
2022-11-04T09:29:01.450Z,4.13
2022-11-04T09:31:11.843Z,5.47
2022-11-04T09:33:16.622Z,5.97
2022-11-04T09:35:20.034Z,5.50
2022-11-04T09:37:23.327Z,7.70
2022-11-04T09:39:27.049Z,6.03
2022-11-04T09:41:50.604Z,5.67
2022-11-04T09:44:02.610Z,3.80
2022-11-04T09:46:06.394Z,3.90
2022-11-04T09:48:15.212Z,3.93
2022-11-04T09:50:25.359Z,5.93
2022-11-04T09:52:31.897Z,6.27
2022-11-04T09:54:47.051Z,4.90
2022-11-04T09:56:53.076Z,4.97
2022-11-04T09:58:56.929Z,5.53
2022-11-04T10:01:06.912Z,4.63
2022-11-04T10:03:32.922Z,6.47
2022-11-04T10:05:54.130Z,6.47
2022-11-04T10:08:22.125Z,6.30
2022-11-04T10:10:34.926Z,6.40
2022-11-04T10:13:05.738Z,7.40
2022-11-04T10:15:21.566Z,5.00
2022-11-04T10:17:48.603Z,8.47
2022-11-04T10:20:04.524Z,6.37
2022-11-04T10:22:17.158Z,6.50
2022-11-04T10:24:31.790Z,5.63
2022-11-04T10:26:42.814Z,7.50
2022-11-04T10:28:52.919Z,6.30
2022-11-04T10:30:56.365Z,6.10
2022-11-04T10:33:06.090Z,5.40
2022-11-04T10:35:22.923Z,5.27
2022-11-04T10:37:28.197Z,4.97
2022-11-04T10:39:36.412Z,5.63
2022-11-04T10:41:41.213Z,5.63
2022-11-04T10:43:44.804Z,5.73
2022-11-04T10:46:00.446Z,5.87
2022-11-04T10:48:10.038Z,4.70
2022-11-04T10:50:40.271Z,4.83
2022-11-04T10:52:45.087Z,5.47
2022-11-04T10:54:50.051Z,5.30
2022-11-04T10:56:54.980Z,5.13
2022-11-04T10:59:01.744Z,17.17
2022-11-04T11:01:25.381Z,4.53
2022-11-04T11:03:32.416Z,5.40
2022-11-04T11:05:36.419Z,4.83
2022-11-04T11:07:40.233Z,5.30
2022-11-04T11:09:54.392Z,5.30
2022-11-04T11:12:01.102Z,6.40
2022-11-04T11:14:04.593Z,7.80
2022-11-04T11:16:13.462Z,5.73
2022-11-04T11:18:18.281Z,4.83
2022-11-04T11:20:24.295Z,5.13
2022-11-04T11:22:32.408Z,5.10
2022-11-04T11:24:35.912Z,4.50
2022-11-04T11:26:41.829Z,5.30
2022-11-04T11:28:57.487Z,5.27
2022-11-04T11:31:04.284Z,4.90
2022-11-04T11:33:17.896Z,4.33
2022-11-04T11:35:24.521Z,3.87
2022-11-04T11:37:28.296Z,3.80
2022-11-04T11:39:33.526Z,3.67
2022-11-04T11:41:53.661Z,3.77
2022-11-04T11:43:59.003Z,3.47
2022-11-04T11:46:02.608Z,4.00
2022-11-04T11:48:30.348Z,3.27
2022-11-04T11:50:35.746Z,4.40
2022-11-04T11:52:40.774Z,3.93
2022-11-04T11:54:46.233Z,4.80
2022-11-04T12:01:51.773Z,3.30
2022-11-04T12:09:31.441Z,4.93
2022-11-04T12:11:50.816Z,3.50
2022-11-04T12:13:58.488Z,4.37
2022-11-04T12:16:25.337Z,5.10
2022-11-04T12:18:42.553Z,4.77
2022-11-04T12:20:53.152Z,4.90
2022-11-04T12:23:02.119Z,3.70
2022-11-04T12:25:14.819Z,4.80
2022-11-04T12:27:27.072Z,5.27
2022-11-04T12:29:49.829Z,5.00
2022-11-04T12:32:04.412Z,4.73
2022-11-04T12:34:17.539Z,4.57
2022-11-04T12:36:37.480Z,4.50
2022-11-04T12:38:56.709Z,5.87
2022-11-04T12:43:38.902Z,3.97
2022-11-04T12:46:01.010Z,4.70
2022-11-04T12:48:10.853Z,5.57
2022-11-04T12:50:33.953Z,4.97
2022-11-04T12:53:19.541Z,5.30
2022-11-04T12:55:34.454Z,4.70
2022-11-04T12:57:47.257Z,5.70
2022-11-04T13:00:06.291Z,4.37
2022-11-04T13:02:21.710Z,6.43
2022-11-04T13:04:31.920Z,4.83
2022-11-04T13:06:42.055Z,4.60
2022-11-04T13:08:50.668Z,4.60
2022-11-04T13:10:58.375Z,5.57
2022-11-04T13:13:03.786Z,6.77
2022-11-04T13:15:16.375Z,4.90
2022-11-04T13:17:25.901Z,4.50
2022-11-04T13:19:35.665Z,7.67
2022-11-04T13:21:39.709Z,6.23
2022-11-04T13:23:51.570Z,8.70
2022-11-04T13:25:55.441Z,8.10
2022-11-04T13:28:00.388Z,5.50
2022-11-04T13:30:09.775Z,4.70
2022-11-04T13:32:19.761Z,5.77
2022-11-04T13:34:33.294Z,4.83
2022-11-04T13:36:42.934Z,4.20
2022-11-04T13:38:52.911Z,3.90
2022-11-04T13:41:16.123Z,6.07
2022-11-04T13:43:44.572Z,4.83
2022-11-04T13:45:51.237Z,4.27
2022-11-04T13:47:58.896Z,5.47
2022-11-04T13:50:28.027Z,4.30
2022-11-04T13:52:34.345Z,2.93
2022-11-04T13:54:41.846Z,5.20
2022-11-04T13:56:45.342Z,7.80
2022-11-04T13:58:53.499Z,5.60
2022-11-04T14:01:27.525Z,5.10
2022-11-04T14:03:54.839Z,3.50
2022-11-04T14:06:08.354Z,4.43
2022-11-04T14:08:14.483Z,5.03
2022-11-04T14:10:43.729Z,4.33
2022-11-04T14:12:47.189Z,6.80
2022-11-04T14:14:53.310Z,4.60
2022-11-04T14:16:56.690Z,4.77
2022-11-04T14:20:02.082Z,2.80
2022-11-04T14:22:13.585Z,3.87
2022-11-04T14:24:20.412Z,3.83
2022-11-04T14:26:27.493Z,3.20
2022-11-04T14:28:32.892Z,2.90
2022-11-04T14:30:52.049Z,4.33
2022-11-04T14:32:59.659Z,5.23
2022-11-04T14:35:05.367Z,3.53
2022-11-04T14:37:21.185Z,5.17
2022-11-04T14:39:26.707Z,5.07
2022-11-04T14:41:51.341Z,3.77
2022-11-04T14:43:56.413Z,3.87
2022-11-04T14:46:02.480Z,5.30
2022-11-04T14:48:15.931Z,4.97
2022-11-04T14:50:22.255Z,3.90
2022-11-04T14:52:29.819Z,3.90
2022-11-04T14:54:34.978Z,3.77
2022-11-04T14:56:38.405Z,4.40
2022-11-04T14:58:55.654Z,5.60
2022-11-04T15:01:01.856Z,3.80
2022-11-04T15:03:45.671Z,5.47
2022-11-04T15:05:39.746Z,5.80
2022-11-04T15:07:44.554Z,4.10
2022-11-04T15:09:50.317Z,4.60
2022-11-04T15:12:19.857Z,3.67
2022-11-04T15:14:25.794Z,3.53
2022-11-04T15:16:31.651Z,4.83
2022-11-04T15:18:35.017Z,4.67
2022-11-04T15:20:42.392Z,3.80
2022-11-04T15:22:47.204Z,4.47
2022-11-04T15:24:51.616Z,3.80
2022-11-04T15:27:03.783Z,5.10
2022-11-04T15:29:11.287Z,4.07
2022-11-04T15:31:20.490Z,5.00
2022-11-04T15:33:27.338Z,3.90
2022-11-04T15:35:33.108Z,3.40
2022-11-04T15:37:38.239Z,4.07
2022-11-04T15:39:46.064Z,4.17
2022-11-04T15:42:10.096Z,5.07
2022-11-04T15:44:22.072Z,4.80
2022-11-04T15:46:29.354Z,5.30
2022-11-04T15:48:36.535Z,4.07
2022-11-04T15:50:40.526Z,6.50
2022-11-04T15:52:51.597Z,6.53
2022-11-04T15:54:58.680Z,5.80
2022-11-04T15:57:06.693Z,6.20
2022-11-04T15:59:16.084Z,5.47
2022-11-04T16:01:20.914Z,5.93
2022-11-04T16:03:26.843Z,5.00
2022-11-04T16:05:33.154Z,5.00
2022-11-04T16:07:38.800Z,7.17
2022-11-04T16:09:50.121Z,6.03
2022-11-04T16:12:16.310Z,4.20
2022-11-04T16:14:23.862Z,6.93
2022-11-04T16:16:29.052Z,8.60
2022-11-04T16:18:37.493Z,5.73
2022-11-04T16:20:46.844Z,6.43
2022-11-04T16:22:57.278Z,4.50
2022-11-04T16:25:03.653Z,5.13
2022-11-04T16:27:11.996Z,6.40
2022-11-04T16:29:21.060Z,6.10
2022-11-04T16:31:27.602Z,5.50
2022-11-04T16:33:30.949Z,6.50
2022-11-04T16:35:34.377Z,4.97
2022-11-04T16:37:37.902Z,6.27
2022-11-04T16:39:41.842Z,6.00
2022-11-04T16:41:45.425Z,4.90
2022-11-04T16:43:51.147Z,11.80
2022-11-04T16:45:54.593Z,11.93
2022-11-04T16:47:58.925Z,7.93
2022-11-04T16:50:03.169Z,6.80
2022-11-04T16:52:12.701Z,8.23
2022-11-04T16:54:16.043Z,8.20
2022-11-04T16:56:21.746Z,6.73
2022-11-04T16:58:25.129Z,7.60
2022-11-04T17:00:32.828Z,6.00
2022-11-04T17:02:38.403Z,5.77
2022-11-04T17:04:42.457Z,5.70
2022-11-04T17:06:46.265Z,5.60
2022-11-04T17:08:49.712Z,4.40
2022-11-04T17:10:54.216Z,5.30
2022-11-04T17:12:57.622Z,4.33
2022-11-04T17:15:00.986Z,4.20
2022-11-04T17:17:06.624Z,4.63
2022-11-04T17:19:15.184Z,4.10
2022-11-04T17:21:20.743Z,4.33
2022-11-04T17:23:24.689Z,4.90
2022-11-04T17:25:30.181Z,5.43
2022-11-04T17:27:33.471Z,4.87
2022-11-04T17:29:37.478Z,5.20
2022-11-04T17:31:40.850Z,4.33
2022-11-04T17:33:46.138Z,4.70
2022-11-04T17:35:51.406Z,6.23
2022-11-04T17:37:55.786Z,5.60
2022-11-04T17:39:59.320Z,4.80
2022-11-04T17:42:19.518Z,4.50
2022-11-04T17:44:22.880Z,4.67
2022-11-04T17:46:35.473Z,4.20
2022-11-04T17:48:39.012Z,5.20
2022-11-04T17:50:43.713Z,5.13
2022-11-04T17:52:49.152Z,6.20
2022-11-04T17:54:52.926Z,5.70
2022-11-04T17:56:56.750Z,5.47
2022-11-04T17:59:01.240Z,6.50
2022-11-04T18:01:07.562Z,9.47
2022-11-04T18:03:12.277Z,10.20
2022-11-04T18:05:15.994Z,9.20
2022-11-04T18:07:20.712Z,10.10
2022-11-04T18:09:24.021Z,8.40
2022-11-04T18:11:47.684Z,9.27
2022-11-04T18:13:51.065Z,8.83
2022-11-04T18:15:54.548Z,8.33
2022-11-04T18:17:57.871Z,7.17
2022-11-04T18:20:01.275Z,7.23
2022-11-04T18:22:04.709Z,7.50
2022-11-04T18:24:09.795Z,6.73
2022-11-04T18:26:13.458Z,8.23
2022-11-04T18:28:16.799Z,7.73
2022-11-04T18:30:20.316Z,7.93
2022-11-04T18:32:23.677Z,7.50
2022-11-04T18:34:27.029Z,7.53
2022-11-04T18:36:31.639Z,9.97
2022-11-04T18:38:35.022Z,9.07
2022-11-04T18:40:39.798Z,8.20
2022-11-04T18:42:43.223Z,8.90
2022-11-04T18:44:46.593Z,7.50
2022-11-04T18:46:50.790Z,7.47
2022-11-04T18:48:54.618Z,8.90
2022-11-04T18:51:00.405Z,8.27
2022-11-04T18:53:03.825Z,7.67
2022-11-04T18:55:08.861Z,6.87
2022-11-04T18:57:13.636Z,6.93
2022-11-04T18:59:17.260Z,10.10
2022-11-04T19:01:23.114Z,7.13
2022-11-04T19:03:26.569Z,6.67
2022-11-04T19:05:30.018Z,8.63
2022-11-04T19:07:33.382Z,7.20
2022-11-04T19:09:51.995Z,7.17
2022-11-04T19:12:15.374Z,10.27
2022-11-04T19:14:20.285Z,6.67
2022-11-04T19:16:24.516Z,8.57
2022-11-04T19:18:27.906Z,10.13
2022-11-04T19:20:31.269Z,7.60
2022-11-04T19:22:34.627Z,8.53
2022-11-04T19:24:39.285Z,8.27
2022-11-04T19:26:42.641Z,10.73
2022-11-04T19:28:48.774Z,11.53
2022-11-04T19:31:00.009Z,9.50
2022-11-04T19:33:03.502Z,10.63
2022-11-04T19:35:07.371Z,10.40
2022-11-04T19:37:11.634Z,8.80
2022-11-04T19:39:15.034Z,9.60
2022-11-04T19:41:33.662Z,7.53
2022-11-04T19:43:37.071Z,6.43
2022-11-04T19:45:41.780Z,5.83
2022-11-04T19:47:46.649Z,5.70
2022-11-04T19:49:50.206Z,6.70
2022-11-04T19:51:53.568Z,7.27
2022-11-04T19:53:57.539Z,6.40
2022-11-04T19:56:01.109Z,6.70
2022-11-04T19:58:04.869Z,6.70
2022-11-04T20:00:10.221Z,7.03
2022-11-04T20:02:17.147Z,6.83
2022-11-04T20:04:22.204Z,7.50
2022-11-04T20:06:25.596Z,8.83
2022-11-04T20:08:29.242Z,7.90
2022-11-04T20:10:32.532Z,8.47
2022-11-04T20:12:53.789Z,7.87
2022-11-04T20:14:57.579Z,9.53
2022-11-04T20:17:01.022Z,9.23
2022-11-04T20:19:04.820Z,7.40
2022-11-04T20:21:10.362Z,8.97
2022-11-04T20:23:13.937Z,8.73
2022-11-04T20:25:17.327Z,9.20
2022-11-04T20:27:20.675Z,9.93
2022-11-04T20:29:24.058Z,9.37
2022-11-04T20:31:29.280Z,10.80
2022-11-04T20:33:32.734Z,8.90
2022-11-04T20:35:36.240Z,8.00
2022-11-04T20:37:41.537Z,8.83
2022-11-04T20:39:45.483Z,10.37
2022-11-04T20:41:48.974Z,8.20
2022-11-04T20:43:52.675Z,7.90
2022-11-04T20:45:56.958Z,8.90
2022-11-04T20:48:00.597Z,9.90
2022-11-04T20:50:04.195Z,10.83
2022-11-04T20:52:07.530Z,11.80
2022-11-04T20:54:13.408Z,8.97
2022-11-04T20:56:20.626Z,9.90
2022-11-04T20:58:23.939Z,11.00
2022-11-04T21:00:27.598Z,12.07
2022-11-04T21:02:31.051Z,12.73
2022-11-04T21:04:36.384Z,11.60
2022-11-04T21:06:40.581Z,10.00
2022-11-04T21:08:43.938Z,11.07
2022-11-04T21:10:51.519Z,14.00
2022-11-04T21:12:54.821Z,14.50
2022-11-04T21:14:58.138Z,13.13
2022-11-04T21:17:01.666Z,14.67
2022-11-04T21:19:06.665Z,14.43
2022-11-04T21:21:12.312Z,14.17
2022-11-04T21:23:17.795Z,17.80
2022-11-04T21:25:22.049Z,14.97
2022-11-04T21:27:26.726Z,14.27
2022-11-04T21:29:30.095Z,15.57
2022-11-04T21:31:34.846Z,16.17
2022-11-04T21:33:38.894Z,17.43
2022-11-04T21:35:43.994Z,16.20
2022-11-04T21:37:47.382Z,15.43
2022-11-04T21:39:50.670Z,17.20
2022-11-04T21:41:54.102Z,16.90
2022-11-04T21:44:00.690Z,14.87
2022-11-04T21:46:05.041Z,14.10
2022-11-04T21:48:08.839Z,16.77
2022-11-04T21:50:17.669Z,18.60
2022-11-04T21:52:21.439Z,19.33
2022-11-04T21:54:24.729Z,16.30
2022-11-04T21:56:32.826Z,17.67
2022-11-04T21:58:37.285Z,16.87
2022-11-04T22:00:42.011Z,17.30
2022-11-04T22:02:47.382Z,14.77
2022-11-04T22:04:50.872Z,13.40
2022-11-04T22:06:54.227Z,15.50
2022-11-04T22:08:57.610Z,13.00
2022-11-04T22:11:08.178Z,14.00
2022-11-04T22:13:11.791Z,13.27
2022-11-04T22:15:35.561Z,11.67
2022-11-04T22:17:40.320Z,12.80
2022-11-04T22:19:43.637Z,11.20
2022-11-04T22:21:47.453Z,11.97
2022-11-04T22:23:51.407Z,10.00
2022-11-04T22:26:00.429Z,10.20
2022-11-04T22:28:05.056Z,11.30
2022-11-04T22:30:10.149Z,10.33
2022-11-04T22:32:14.359Z,11.23
2022-11-04T22:34:19.065Z,11.30
2022-11-04T22:36:23.269Z,10.37
2022-11-04T22:38:26.627Z,11.83
2022-11-04T22:40:29.966Z,10.70
2022-11-04T22:42:33.277Z,11.37
2022-11-04T22:44:36.610Z,10.97
2022-11-04T22:46:40.332Z,9.63
2022-11-04T22:48:44.097Z,8.80
2022-11-04T22:50:55.552Z,8.60
2022-11-04T22:52:58.917Z,9.40
2022-11-04T22:55:02.281Z,10.47
2022-11-04T22:57:05.747Z,10.90
2022-11-04T22:59:09.132Z,10.20
2022-11-04T23:01:15.284Z,9.73
2022-11-04T23:03:18.834Z,10.30
2022-11-04T23:05:22.406Z,10.40
2022-11-04T23:07:27.249Z,11.10
2022-11-04T23:09:31.775Z,10.50
2022-11-04T23:11:52.744Z,10.63
2022-11-04T23:14:20.442Z,10.90
2022-11-04T23:16:42.221Z,11.80
2022-11-04T23:18:46.175Z,13.40
2022-11-04T23:21:09.816Z,13.13
2022-11-04T23:23:32.048Z,14.67
2022-11-04T23:25:34.435Z,13.73
2022-11-04T23:27:57.877Z,13.20
2022-11-04T23:30:19.220Z,14.10
2022-11-04T23:32:27.127Z,12.60
2022-11-04T23:34:48.591Z,12.67
2022-11-04T23:37:09.300Z,11.57
2022-11-04T23:39:13.990Z,12.53
2022-11-04T23:41:34.999Z,11.90
2022-11-04T23:43:38.304Z,13.53
2022-11-04T23:45:59.264Z,13.03
2022-11-04T23:48:19.944Z,12.13
2022-11-04T23:50:37.845Z,12.10
2022-11-04T23:52:58.855Z,14.03
2022-11-04T23:55:21.454Z,12.40
2022-11-04T23:57:42.463Z,10.67
